sensor_id;sensor_type;location;lat;lon;timestamp;P1;durP1;ratioP1;P2;durP2;ratioP2
142;SDS011;63667;49.046;8.468;2023-08-30T00:01:14;14.63;;;9.30;;
142;SDS011;63667;49.046;8.468;2023-08-30T00:03:41;11.33;;;8.70;;
142;SDS011;63667;49.046;8.468;2023-08-30T00:06:08;11.97;;;9.27;;
142;SDS011;63667;49.046;8.468;2023-08-30T00:08:35;14.93;;;9.27;;
142;SDS011;63667;49.046;8.468;2023-08-30T00:11:03;13.83;;;9.60;;
142;SDS011;63667;49.046;8.468;2023-08-30T00:13:30;14.90;;;9.03;;
142;SDS011;63667;49.046;8.468;2023-08-30T00:15:58;17.27;;;9.73;;
142;SDS011;63667;49.046;8.468;2023-08-30T00:18:24;25.27;;;10.30;;
142;SDS011;63667;49.046;8.468;2023-08-30T00:20:51;13.60;;;9.07;;
142;SDS011;63667;49.046;8.468;2023-08-30T00:23:17;12.40;;;9.53;;
142;SDS011;63667;49.046;8.468;2023-08-30T00:25:43;15.60;;;9.70;;
142;SDS011;63667;49.046;8.468;2023-08-30T00:28:09;14.57;;;9.47;;
142;SDS011;63667;49.046;8.468;2023-08-30T00:30:36;15.77;;;9.60;;
142;SDS011;63667;49.046;8.468;2023-08-30T00:33:02;16.20;;;9.30;;
142;SDS011;63667;49.046;8.468;2023-08-30T00:35:29;16.13;;;10.00;;
142;SDS011;63667;49.046;8.468;2023-08-30T00:37:55;15.03;;;9.30;;
142;SDS011;63667;49.046;8.468;2023-08-30T00:40:24;12.50;;;9.17;;
142;SDS011;63667;49.046;8.468;2023-08-30T00:42:51;15.27;;;8.43;;
142;SDS011;63667;49.046;8.468;2023-08-30T00:45:18;14.87;;;9.07;;
142;SDS011;63667;49.046;8.468;2023-08-30T00:47:44;15.00;;;9.63;;
142;SDS011;63667;49.046;8.468;2023-08-30T00:50:11;16.40;;;10.30;;
142;SDS011;63667;49.046;8.468;2023-08-30T00:52:37;15.57;;;10.53;;
142;SDS011;63667;49.046;8.468;2023-08-30T00:55:04;15.10;;;9.83;;
142;SDS011;63667;49.046;8.468;2023-08-30T00:57:30;13.40;;;8.80;;
142;SDS011;63667;49.046;8.468;2023-08-30T00:59:57;13.00;;;9.17;;
142;SDS011;63667;49.046;8.468;2023-08-30T01:02:23;16.20;;;9.30;;
142;SDS011;63667;49.046;8.468;2023-08-30T01:04:50;13.77;;;9.97;;
142;SDS011;63667;49.046;8.468;2023-08-30T01:07:17;13.97;;;9.80;;
142;SDS011;63667;49.046;8.468;2023-08-30T01:09:44;13.70;;;8.93;;
142;SDS011;63667;49.046;8.468;2023-08-30T01:12:17;15.43;;;9.73;;
142;SDS011;63667;49.046;8.468;2023-08-30T01:14:53;14.73;;;9.70;;
142;SDS011;63667;49.046;8.468;2023-08-30T01:17:20;12.43;;;8.77;;
142;SDS011;63667;49.046;8.468;2023-08-30T01:19:50;18.43;;;9.57;;
142;SDS011;63667;49.046;8.468;2023-08-30T01:22:19;13.20;;;8.90;;
142;SDS011;63667;49.046;8.468;2023-08-30T01:24:55;12.83;;;9.23;;
142;SDS011;63667;49.046;8.468;2023-08-30T01:27:24;15.33;;;9.80;;
142;SDS011;63667;49.046;8.468;2023-08-30T01:29:51;16.60;;;9.83;;
142;SDS011;63667;49.046;8.468;2023-08-30T01:32:20;20.83;;;9.70;;
142;SDS011;63667;49.046;8.468;2023-08-30T01:34:50;15.03;;;9.40;;
142;SDS011;63667;49.046;8.468;2023-08-30T01:37:17;13.17;;;9.50;;
142;SDS011;63667;49.046;8.468;2023-08-30T01:39:43;14.77;;;8.97;;
142;SDS011;63667;49.046;8.468;2023-08-30T01:42:11;13.07;;;9.00;;
142;SDS011;63667;49.046;8.468;2023-08-30T01:44:39;13.67;;;9.20;;
142;SDS011;63667;49.046;8.468;2023-08-30T01:47:10;13.87;;;9.50;;
142;SDS011;63667;49.046;8.468;2023-08-30T01:49:37;13.30;;;8.57;;
142;SDS011;63667;49.046;8.468;2023-08-30T01:52:05;16.83;;;9.00;;
142;SDS011;63667;49.046;8.468;2023-08-30T01:54:32;14.70;;;9.27;;
142;SDS011;63667;49.046;8.468;2023-08-30T01:56:58;12.90;;;9.07;;
142;SDS011;63667;49.046;8.468;2023-08-30T01:59:24;12.97;;;9.13;;
142;SDS011;63667;49.046;8.468;2023-08-30T02:01:51;17.87;;;9.87;;
142;SDS011;63667;49.046;8.468;2023-08-30T02:04:17;14.90;;;9.80;;
142;SDS011;63667;49.046;8.468;2023-08-30T02:06:53;16.00;;;9.60;;
142;SDS011;63667;49.046;8.468;2023-08-30T02:09:26;18.33;;;9.10;;
142;SDS011;63667;49.046;8.468;2023-08-30T02:11:54;15.47;;;9.83;;
142;SDS011;63667;49.046;8.468;2023-08-30T02:14:22;14.47;;;9.30;;
142;SDS011;63667;49.046;8.468;2023-08-30T02:16:50;15.90;;;9.20;;
142;SDS011;63667;49.046;8.468;2023-08-30T02:19:17;15.73;;;9.73;;
142;SDS011;63667;49.046;8.468;2023-08-30T02:21:46;14.87;;;9.47;;
142;SDS011;63667;49.046;8.468;2023-08-30T02:24:13;14.30;;;9.10;;
142;SDS011;63667;49.046;8.468;2023-08-30T02:26:40;14.57;;;9.67;;
142;SDS011;63667;49.046;8.468;2023-08-30T02:29:06;13.77;;;9.70;;
142;SDS011;63667;49.046;8.468;2023-08-30T02:31:33;13.20;;;9.43;;
142;SDS011;63667;49.046;8.468;2023-08-30T02:33:59;13.60;;;9.57;;
142;SDS011;63667;49.046;8.468;2023-08-30T02:36:27;17.50;;;10.17;;
142;SDS011;63667;49.046;8.468;2023-08-30T02:38:53;16.53;;;8.90;;
142;SDS011;63667;49.046;8.468;2023-08-30T02:41:19;14.77;;;9.97;;
142;SDS011;63667;49.046;8.468;2023-08-30T02:43:46;15.50;;;9.27;;
142;SDS011;63667;49.046;8.468;2023-08-30T02:46:12;16.80;;;9.60;;
142;SDS011;63667;49.046;8.468;2023-08-30T02:48:38;15.83;;;9.80;;
142;SDS011;63667;49.046;8.468;2023-08-30T02:51:04;12.90;;;9.53;;
142;SDS011;63667;49.046;8.468;2023-08-30T02:53:31;15.13;;;8.90;;
142;SDS011;63667;49.046;8.468;2023-08-30T02:55:57;13.07;;;8.47;;
142;SDS011;63667;49.046;8.468;2023-08-30T02:58:23;14.63;;;8.93;;
142;SDS011;63667;49.046;8.468;2023-08-30T03:00:50;13.40;;;8.90;;
142;SDS011;63667;49.046;8.468;2023-08-30T03:03:16;14.30;;;9.50;;
142;SDS011;63667;49.046;8.468;2023-08-30T03:05:44;14.20;;;9.47;;
142;SDS011;63667;49.046;8.468;2023-08-30T03:08:10;13.00;;;8.73;;
142;SDS011;63667;49.046;8.468;2023-08-30T03:10:36;12.60;;;8.73;;
142;SDS011;63667;49.046;8.468;2023-08-30T03:13:03;18.13;;;9.87;;
142;SDS011;63667;49.046;8.468;2023-08-30T03:15:32;17.03;;;9.77;;
142;SDS011;63667;49.046;8.468;2023-08-30T03:17:59;16.00;;;9.00;;
142;SDS011;63667;49.046;8.468;2023-08-30T03:20:26;13.43;;;8.90;;
142;SDS011;63667;49.046;8.468;2023-08-30T03:22:55;14.83;;;9.10;;
142;SDS011;63667;49.046;8.468;2023-08-30T03:25:23;13.33;;;8.90;;
142;SDS011;63667;49.046;8.468;2023-08-30T03:27:50;14.07;;;9.60;;
142;SDS011;63667;49.046;8.468;2023-08-30T03:30:16;14.97;;;9.67;;
142;SDS011;63667;49.046;8.468;2023-08-30T03:32:43;14.27;;;9.27;;
142;SDS011;63667;49.046;8.468;2023-08-30T03:35:09;13.70;;;9.17;;
142;SDS011;63667;49.046;8.468;2023-08-30T03:37:35;13.63;;;9.70;;
142;SDS011;63667;49.046;8.468;2023-08-30T03:40:02;14.30;;;9.70;;
142;SDS011;63667;49.046;8.468;2023-08-30T03:42:30;14.07;;;9.27;;
142;SDS011;63667;49.046;8.468;2023-08-30T03:44:57;15.57;;;9.73;;
142;SDS011;63667;49.046;8.468;2023-08-30T03:47:24;12.17;;;9.00;;
142;SDS011;63667;49.046;8.468;2023-08-30T03:49:50;18.00;;;10.23;;
142;SDS011;63667;49.046;8.468;2023-08-30T03:52:16;15.20;;;9.37;;
142;SDS011;63667;49.046;8.468;2023-08-30T03:54:43;13.93;;;9.67;;
142;SDS011;63667;49.046;8.468;2023-08-30T03:57:09;15.67;;;9.83;;
142;SDS011;63667;49.046;8.468;2023-08-30T03:59:35;14.37;;;9.83;;
142;SDS011;63667;49.046;8.468;2023-08-30T04:02:02;15.50;;;9.30;;
142;SDS011;63667;49.046;8.468;2023-08-30T04:04:28;16.97;;;9.60;;
142;SDS011;63667;49.046;8.468;2023-08-30T04:06:54;14.27;;;9.77;;
142;SDS011;63667;49.046;8.468;2023-08-30T04:09:21;14.80;;;9.70;;
142;SDS011;63667;49.046;8.468;2023-08-30T04:11:47;16.90;;;9.37;;
142;SDS011;63667;49.046;8.468;2023-08-30T04:14:13;12.47;;;8.70;;
142;SDS011;63667;49.046;8.468;2023-08-30T04:16:40;17.77;;;9.37;;
142;SDS011;63667;49.046;8.468;2023-08-30T04:19:06;14.13;;;9.70;;
142;SDS011;63667;49.046;8.468;2023-08-30T04:21:32;16.00;;;10.23;;
142;SDS011;63667;49.046;8.468;2023-08-30T04:23:59;15.20;;;9.60;;
142;SDS011;63667;49.046;8.468;2023-08-30T04:26:25;15.53;;;9.90;;
142;SDS011;63667;49.046;8.468;2023-08-30T04:28:51;14.20;;;9.23;;
142;SDS011;63667;49.046;8.468;2023-08-30T04:31:18;12.17;;;9.03;;
142;SDS011;63667;49.046;8.468;2023-08-30T04:33:44;16.23;;;9.07;;
142;SDS011;63667;49.046;8.468;2023-08-30T04:36:10;15.33;;;9.50;;
142;SDS011;63667;49.046;8.468;2023-08-30T04:38:37;16.13;;;10.17;;
142;SDS011;63667;49.046;8.468;2023-08-30T04:41:03;13.77;;;9.20;;
142;SDS011;63667;49.046;8.468;2023-08-30T04:43:30;21.10;;;10.20;;
142;SDS011;63667;49.046;8.468;2023-08-30T04:45:56;25.00;;;10.57;;
142;SDS011;63667;49.046;8.468;2023-08-30T04:48:22;18.53;;;10.40;;
142;SDS011;63667;49.046;8.468;2023-08-30T04:50:57;13.30;;;9.10;;
142;SDS011;63667;49.046;8.468;2023-08-30T04:53:23;16.27;;;10.20;;
142;SDS011;63667;49.046;8.468;2023-08-30T04:55:49;15.50;;;10.53;;
142;SDS011;63667;49.046;8.468;2023-08-30T04:58:16;14.83;;;9.53;;
142;SDS011;63667;49.046;8.468;2023-08-30T05:00:42;12.97;;;9.60;;
142;SDS011;63667;49.046;8.468;2023-08-30T05:03:09;16.47;;;9.73;;
142;SDS011;63667;49.046;8.468;2023-08-30T05:05:35;17.07;;;10.07;;
142;SDS011;63667;49.046;8.468;2023-08-30T05:08:02;14.30;;;9.57;;
142;SDS011;63667;49.046;8.468;2023-08-30T05:10:29;15.80;;;9.60;;
142;SDS011;63667;49.046;8.468;2023-08-30T05:12:55;16.23;;;10.50;;
142;SDS011;63667;49.046;8.468;2023-08-30T05:15:22;14.90;;;9.60;;
142;SDS011;63667;49.046;8.468;2023-08-30T05:17:48;18.20;;;9.57;;
142;SDS011;63667;49.046;8.468;2023-08-30T05:20:14;12.60;;;9.10;;
142;SDS011;63667;49.046;8.468;2023-08-30T05:22:41;17.97;;;9.87;;
142;SDS011;63667;49.046;8.468;2023-08-30T05:25:07;20.77;;;9.50;;
142;SDS011;63667;49.046;8.468;2023-08-30T05:27:34;16.17;;;9.60;;
142;SDS011;63667;49.046;8.468;2023-08-30T05:30:00;13.93;;;9.87;;
142;SDS011;63667;49.046;8.468;2023-08-30T05:32:28;15.73;;;9.50;;
142;SDS011;63667;49.046;8.468;2023-08-30T05:34:55;16.33;;;9.60;;
142;SDS011;63667;49.046;8.468;2023-08-30T05:37:21;16.13;;;9.60;;
142;SDS011;63667;49.046;8.468;2023-08-30T05:39:47;16.33;;;9.10;;
142;SDS011;63667;49.046;8.468;2023-08-30T05:42:14;13.50;;;9.70;;
142;SDS011;63667;49.046;8.468;2023-08-30T05:44:40;11.40;;;8.70;;
142;SDS011;63667;49.046;8.468;2023-08-30T05:47:06;12.33;;;9.00;;
142;SDS011;63667;49.046;8.468;2023-08-30T05:49:32;19.30;;;9.47;;
142;SDS011;63667;49.046;8.468;2023-08-30T05:51:58;17.40;;;9.70;;
142;SDS011;63667;49.046;8.468;2023-08-30T05:54:25;13.00;;;9.07;;
142;SDS011;63667;49.046;8.468;2023-08-30T05:56:55;11.87;;;8.93;;
142;SDS011;63667;49.046;8.468;2023-08-30T05:59:21;14.70;;;9.70;;
142;SDS011;63667;49.046;8.468;2023-08-30T06:01:47;13.43;;;9.43;;
142;SDS011;63667;49.046;8.468;2023-08-30T06:04:14;17.80;;;10.10;;
142;SDS011;63667;49.046;8.468;2023-08-30T06:06:40;13.80;;;9.10;;
142;SDS011;63667;49.046;8.468;2023-08-30T06:09:06;15.17;;;9.87;;
142;SDS011;63667;49.046;8.468;2023-08-30T06:11:33;18.93;;;8.97;;
142;SDS011;63667;49.046;8.468;2023-08-30T06:13:59;11.97;;;8.30;;
142;SDS011;63667;49.046;8.468;2023-08-30T06:16:25;13.70;;;9.27;;
142;SDS011;63667;49.046;8.468;2023-08-30T06:18:51;15.00;;;8.30;;
142;SDS011;63667;49.046;8.468;2023-08-30T06:21:18;15.63;;;8.37;;
142;SDS011;63667;49.046;8.468;2023-08-30T06:23:44;19.53;;;8.70;;
142;SDS011;63667;49.046;8.468;2023-08-30T06:26:10;15.23;;;9.20;;
142;SDS011;63667;49.046;8.468;2023-08-30T06:28:37;15.60;;;8.20;;
142;SDS011;63667;49.046;8.468;2023-08-30T06:31:03;12.00;;;8.27;;
142;SDS011;63667;49.046;8.468;2023-08-30T06:33:29;14.20;;;8.60;;
142;SDS011;63667;49.046;8.468;2023-08-30T06:35:55;12.50;;;8.13;;
142;SDS011;63667;49.046;8.468;2023-08-30T06:38:22;12.03;;;8.00;;
142;SDS011;63667;49.046;8.468;2023-08-30T06:40:48;11.33;;;8.03;;
142;SDS011;63667;49.046;8.468;2023-08-30T06:43:14;14.30;;;8.30;;
142;SDS011;63667;49.046;8.468;2023-08-30T06:45:41;12.47;;;7.60;;
142;SDS011;63667;49.046;8.468;2023-08-30T06:48:08;9.53;;;7.20;;
142;SDS011;63667;49.046;8.468;2023-08-30T06:50:34;10.00;;;7.40;;
142;SDS011;63667;49.046;8.468;2023-08-30T06:53:01;12.87;;;8.40;;
142;SDS011;63667;49.046;8.468;2023-08-30T06:55:28;10.90;;;7.03;;
142;SDS011;63667;49.046;8.468;2023-08-30T06:57:54;16.00;;;8.20;;
142;SDS011;63667;49.046;8.468;2023-08-30T07:00:21;9.30;;;7.30;;
142;SDS011;63667;49.046;8.468;2023-08-30T07:02:47;9.30;;;6.90;;
142;SDS011;63667;49.046;8.468;2023-08-30T07:05:13;10.40;;;7.10;;
142;SDS011;63667;49.046;8.468;2023-08-30T07:07:40;9.07;;;6.70;;
142;SDS011;63667;49.046;8.468;2023-08-30T07:10:06;8.17;;;6.23;;
142;SDS011;63667;49.046;8.468;2023-08-30T07:12:33;9.83;;;5.93;;
142;SDS011;63667;49.046;8.468;2023-08-30T07:15:00;8.37;;;5.90;;
142;SDS011;63667;49.046;8.468;2023-08-30T07:17:26;12.70;;;6.83;;
142;SDS011;63667;49.046;8.468;2023-08-30T07:19:52;9.67;;;5.90;;
142;SDS011;63667;49.046;8.468;2023-08-30T07:22:18;8.33;;;6.47;;
142;SDS011;63667;49.046;8.468;2023-08-30T07:24:45;15.13;;;6.40;;
142;SDS011;63667;49.046;8.468;2023-08-30T07:27:11;8.07;;;6.53;;
142;SDS011;63667;49.046;8.468;2023-08-30T07:29:38;7.70;;;6.20;;
142;SDS011;63667;49.046;8.468;2023-08-30T07:32:09;8.17;;;6.60;;
142;SDS011;63667;49.046;8.468;2023-08-30T07:34:35;8.73;;;5.87;;
142;SDS011;63667;49.046;8.468;2023-08-30T07:37:02;10.83;;;6.37;;
142;SDS011;63667;49.046;8.468;2023-08-30T07:39:28;8.90;;;6.43;;
142;SDS011;63667;49.046;8.468;2023-08-30T07:41:54;7.13;;;5.50;;
142;SDS011;63667;49.046;8.468;2023-08-30T07:44:20;8.93;;;6.23;;
142;SDS011;63667;49.046;8.468;2023-08-30T07:46:47;9.50;;;6.67;;
142;SDS011;63667;49.046;8.468;2023-08-30T07:49:13;9.13;;;6.27;;
142;SDS011;63667;49.046;8.468;2023-08-30T07:51:39;9.03;;;6.20;;
142;SDS011;63667;49.046;8.468;2023-08-30T07:54:06;10.33;;;6.70;;
142;SDS011;63667;49.046;8.468;2023-08-30T07:56:32;9.93;;;6.30;;
142;SDS011;63667;49.046;8.468;2023-08-30T07:58:58;10.10;;;5.50;;
142;SDS011;63667;49.046;8.468;2023-08-30T08:01:24;11.30;;;6.60;;
142;SDS011;63667;49.046;8.468;2023-08-30T08:03:51;10.53;;;6.60;;
142;SDS011;63667;49.046;8.468;2023-08-30T08:06:17;8.63;;;6.80;;
142;SDS011;63667;49.046;8.468;2023-08-30T08:08:44;9.20;;;6.20;;
142;SDS011;63667;49.046;8.468;2023-08-30T08:11:10;7.10;;;5.83;;
142;SDS011;63667;49.046;8.468;2023-08-30T08:13:37;10.10;;;6.73;;
142;SDS011;63667;49.046;8.468;2023-08-30T08:16:03;10.00;;;6.60;;
142;SDS011;63667;49.046;8.468;2023-08-30T08:18:30;13.90;;;6.40;;
142;SDS011;63667;49.046;8.468;2023-08-30T08:20:56;9.93;;;6.30;;
142;SDS011;63667;49.046;8.468;2023-08-30T08:23:23;11.03;;;6.67;;
142;SDS011;63667;49.046;8.468;2023-08-30T08:25:49;9.40;;;6.67;;
142;SDS011;63667;49.046;8.468;2023-08-30T08:28:15;8.73;;;6.90;;
142;SDS011;63667;49.046;8.468;2023-08-30T08:30:42;8.10;;;6.30;;
142;SDS011;63667;49.046;8.468;2023-08-30T08:33:10;10.97;;;6.90;;
142;SDS011;63667;49.046;8.468;2023-08-30T08:35:36;9.67;;;6.70;;
142;SDS011;63667;49.046;8.468;2023-08-30T08:38:03;10.63;;;6.70;;
142;SDS011;63667;49.046;8.468;2023-08-30T08:40:29;9.93;;;6.57;;
142;SDS011;63667;49.046;8.468;2023-08-30T08:42:56;13.13;;;5.93;;
142;SDS011;63667;49.046;8.468;2023-08-30T08:45:22;10.20;;;6.17;;
142;SDS011;63667;49.046;8.468;2023-08-30T08:47:49;8.17;;;5.60;;
142;SDS011;63667;49.046;8.468;2023-08-30T08:50:16;11.80;;;5.90;;
142;SDS011;63667;49.046;8.468;2023-08-30T08:52:43;8.33;;;5.40;;
142;SDS011;63667;49.046;8.468;2023-08-30T08:55:10;7.80;;;6.37;;
142;SDS011;63667;49.046;8.468;2023-08-30T08:57:36;7.07;;;5.50;;
142;SDS011;63667;49.046;8.468;2023-08-30T09:00:04;8.53;;;5.87;;
142;SDS011;63667;49.046;8.468;2023-08-30T09:02:31;8.53;;;5.60;;
142;SDS011;63667;49.046;8.468;2023-08-30T09:04:58;5.93;;;5.70;;
142;SDS011;63667;49.046;8.468;2023-08-30T09:07:26;7.10;;;5.90;;
142;SDS011;63667;49.046;8.468;2023-08-30T09:09:55;7.00;;;5.70;;
142;SDS011;63667;49.046;8.468;2023-08-30T09:12:21;9.90;;;6.00;;
142;SDS011;63667;49.046;8.468;2023-08-30T09:14:56;8.87;;;5.80;;
142;SDS011;63667;49.046;8.468;2023-08-30T09:17:23;10.23;;;5.90;;
142;SDS011;63667;49.046;8.468;2023-08-30T09:19:49;6.97;;;5.80;;
142;SDS011;63667;49.046;8.468;2023-08-30T09:22:15;6.77;;;5.40;;
142;SDS011;63667;49.046;8.468;2023-08-30T09:24:42;6.13;;;5.23;;
142;SDS011;63667;49.046;8.468;2023-08-30T09:27:09;7.17;;;5.67;;
142;SDS011;63667;49.046;8.468;2023-08-30T09:29:35;5.60;;;5.00;;
142;SDS011;63667;49.046;8.468;2023-08-30T09:32:02;6.13;;;5.27;;
142;SDS011;63667;49.046;8.468;2023-08-30T09:34:28;5.33;;;5.10;;
142;SDS011;63667;49.046;8.468;2023-08-30T09:36:55;7.30;;;5.80;;
142;SDS011;63667;49.046;8.468;2023-08-30T09:39:21;6.57;;;6.07;;
142;SDS011;63667;49.046;8.468;2023-08-30T09:41:48;6.30;;;5.00;;
142;SDS011;63667;49.046;8.468;2023-08-30T09:44:19;5.67;;;5.00;;
142;SDS011;63667;49.046;8.468;2023-08-30T09:46:50;6.90;;;5.30;;
142;SDS011;63667;49.046;8.468;2023-08-30T09:51:47;8.13;;;4.90;;
142;SDS011;63667;49.046;8.468;2023-08-30T09:54:23;7.60;;;5.40;;
142;SDS011;63667;49.046;8.468;2023-08-30T09:56:50;6.20;;;5.20;;
142;SDS011;63667;49.046;8.468;2023-08-30T09:59:18;6.23;;;5.20;;
142;SDS011;63667;49.046;8.468;2023-08-30T10:01:46;7.63;;;5.10;;
142;SDS011;63667;49.046;8.468;2023-08-30T10:04:18;6.70;;;5.50;;
142;SDS011;63667;49.046;8.468;2023-08-30T10:06:45;6.90;;;5.73;;
142;SDS011;63667;49.046;8.468;2023-08-30T10:09:12;7.10;;;5.13;;
142;SDS011;63667;49.046;8.468;2023-08-30T10:11:40;6.60;;;5.37;;
142;SDS011;63667;49.046;8.468;2023-08-30T10:14:07;10.30;;;4.93;;
142;SDS011;63667;49.046;8.468;2023-08-30T10:21:44;11.40;;;5.90;;
142;SDS011;63667;49.046;8.468;2023-08-30T10:24:14;7.13;;;5.27;;
142;SDS011;63667;49.046;8.468;2023-08-30T10:26:42;7.60;;;5.30;;
142;SDS011;63667;49.046;8.468;2023-08-30T10:29:10;7.87;;;4.80;;
142;SDS011;63667;49.046;8.468;2023-08-30T10:31:37;8.17;;;5.43;;
142;SDS011;63667;49.046;8.468;2023-08-30T10:34:12;6.33;;;5.30;;
142;SDS011;63667;49.046;8.468;2023-08-30T10:36:39;5.53;;;4.83;;
142;SDS011;63667;49.046;8.468;2023-08-30T10:39:10;7.90;;;5.10;;
142;SDS011;63667;49.046;8.468;2023-08-30T10:41:37;6.37;;;4.87;;
142;SDS011;63667;49.046;8.468;2023-08-30T10:44:03;5.60;;;4.40;;
142;SDS011;63667;49.046;8.468;2023-08-30T10:46:31;9.20;;;5.17;;
142;SDS011;63667;49.046;8.468;2023-08-30T10:49:08;7.87;;;4.80;;
142;SDS011;63667;49.046;8.468;2023-08-30T10:51:37;6.00;;;4.80;;
142;SDS011;63667;49.046;8.468;2023-08-30T10:54:16;6.20;;;4.93;;
142;SDS011;63667;49.046;8.468;2023-08-30T10:56:46;5.00;;;4.67;;
142;SDS011;63667;49.046;8.468;2023-08-30T10:59:20;5.20;;;4.90;;
142;SDS011;63667;49.046;8.468;2023-08-30T11:01:47;4.60;;;4.30;;
142;SDS011;63667;49.046;8.468;2023-08-30T11:04:16;6.43;;;4.60;;
142;SDS011;63667;49.046;8.468;2023-08-30T11:06:43;5.80;;;4.77;;
142;SDS011;63667;49.046;8.468;2023-08-30T11:09:14;6.60;;;5.50;;
142;SDS011;63667;49.046;8.468;2023-08-30T11:11:43;5.70;;;4.90;;
142;SDS011;63667;49.046;8.468;2023-08-30T11:14:10;4.83;;;4.53;;
142;SDS011;63667;49.046;8.468;2023-08-30T11:16:37;6.40;;;4.70;;
142;SDS011;63667;49.046;8.468;2023-08-30T11:19:04;5.33;;;4.50;;
142;SDS011;63667;49.046;8.468;2023-08-30T11:21:31;7.17;;;4.60;;
142;SDS011;63667;49.046;8.468;2023-08-30T11:23:58;6.10;;;4.30;;
142;SDS011;63667;49.046;8.468;2023-08-30T11:26:24;6.73;;;5.10;;
142;SDS011;63667;49.046;8.468;2023-08-30T11:28:51;6.70;;;4.63;;
142;SDS011;63667;49.046;8.468;2023-08-30T11:31:19;9.73;;;4.43;;
142;SDS011;63667;49.046;8.468;2023-08-30T11:36:20;5.27;;;4.33;;
142;SDS011;63667;49.046;8.468;2023-08-30T11:38:48;5.80;;;4.23;;
142;SDS011;63667;49.046;8.468;2023-08-30T11:41:15;5.23;;;3.93;;
142;SDS011;63667;49.046;8.468;2023-08-30T11:43:41;6.20;;;4.73;;
142;SDS011;63667;49.046;8.468;2023-08-30T11:46:08;12.83;;;4.20;;
142;SDS011;63667;49.046;8.468;2023-08-30T11:48:35;10.03;;;4.37;;
142;SDS011;63667;49.046;8.468;2023-08-30T11:51:01;9.03;;;4.33;;
142;SDS011;63667;49.046;8.468;2023-08-30T11:53:28;5.47;;;4.50;;
142;SDS011;63667;49.046;8.468;2023-08-30T11:55:54;8.53;;;4.47;;
142;SDS011;63667;49.046;8.468;2023-08-30T11:58:21;5.17;;;4.57;;
142;SDS011;63667;49.046;8.468;2023-08-30T12:00:49;4.60;;;4.30;;
142;SDS011;63667;49.046;8.468;2023-08-30T12:03:16;4.07;;;3.87;;
142;SDS011;63667;49.046;8.468;2023-08-30T12:05:49;6.30;;;4.57;;
142;SDS011;63667;49.046;8.468;2023-08-30T12:10:45;6.20;;;3.97;;
142;SDS011;63667;49.046;8.468;2023-08-30T12:15:47;5.80;;;4.27;;
142;SDS011;63667;49.046;8.468;2023-08-30T12:18:13;4.30;;;4.00;;
142;SDS011;63667;49.046;8.468;2023-08-30T12:20:50;6.50;;;4.60;;
142;SDS011;63667;49.046;8.468;2023-08-30T12:23:24;3.97;;;3.80;;
142;SDS011;63667;49.046;8.468;2023-08-30T12:26:03;4.53;;;4.27;;
142;SDS011;63667;49.046;8.468;2023-08-30T12:28:34;6.13;;;4.20;;
142;SDS011;63667;49.046;8.468;2023-08-30T12:31:01;4.60;;;4.10;;
142;SDS011;63667;49.046;8.468;2023-08-30T12:33:29;5.50;;;4.40;;
142;SDS011;63667;49.046;8.468;2023-08-30T12:35:56;6.10;;;4.13;;
142;SDS011;63667;49.046;8.468;2023-08-30T12:38:23;6.33;;;4.40;;
142;SDS011;63667;49.046;8.468;2023-08-30T12:40:50;6.90;;;4.17;;
142;SDS011;63667;49.046;8.468;2023-08-30T12:43:18;6.10;;;4.30;;
142;SDS011;63667;49.046;8.468;2023-08-30T12:45:45;3.93;;;3.73;;
142;SDS011;63667;49.046;8.468;2023-08-30T12:48:12;5.50;;;4.10;;
142;SDS011;63667;49.046;8.468;2023-08-30T12:50:43;4.70;;;3.70;;
142;SDS011;63667;49.046;8.468;2023-08-30T12:53:10;5.30;;;4.40;;
142;SDS011;63667;49.046;8.468;2023-08-30T12:55:36;3.67;;;3.47;;
142;SDS011;63667;49.046;8.468;2023-08-30T12:58:06;4.53;;;4.30;;
142;SDS011;63667;49.046;8.468;2023-08-30T13:00:33;9.53;;;4.10;;
142;SDS011;63667;49.046;8.468;2023-08-30T13:03:00;4.80;;;4.13;;
142;SDS011;63667;49.046;8.468;2023-08-30T13:05:26;7.50;;;4.10;;
142;SDS011;63667;49.046;8.468;2023-08-30T13:07:53;6.50;;;4.20;;
142;SDS011;63667;49.046;8.468;2023-08-30T13:10:19;5.00;;;3.90;;
142;SDS011;63667;49.046;8.468;2023-08-30T13:12:45;5.93;;;3.67;;
142;SDS011;63667;49.046;8.468;2023-08-30T13:15:12;4.27;;;4.00;;
142;SDS011;63667;49.046;8.468;2023-08-30T13:17:38;7.60;;;3.80;;
142;SDS011;63667;49.046;8.468;2023-08-30T13:20:05;4.70;;;4.00;;
142;SDS011;63667;49.046;8.468;2023-08-30T13:22:32;3.90;;;3.70;;
142;SDS011;63667;49.046;8.468;2023-08-30T13:24:58;4.00;;;3.50;;
142;SDS011;63667;49.046;8.468;2023-08-30T13:27:25;5.37;;;3.40;;
142;SDS011;63667;49.046;8.468;2023-08-30T13:29:51;8.47;;;3.60;;
142;SDS011;63667;49.046;8.468;2023-08-30T13:32:17;4.90;;;3.37;;
142;SDS011;63667;49.046;8.468;2023-08-30T13:34:44;4.10;;;3.90;;
142;SDS011;63667;49.046;8.468;2023-08-30T13:37:11;3.80;;;3.37;;
142;SDS011;63667;49.046;8.468;2023-08-30T13:39:38;4.27;;;3.90;;
142;SDS011;63667;49.046;8.468;2023-08-30T13:42:05;4.00;;;3.80;;
142;SDS011;63667;49.046;8.468;2023-08-30T13:44:31;6.47;;;4.23;;
142;SDS011;63667;49.046;8.468;2023-08-30T13:46:58;3.83;;;3.53;;
142;SDS011;63667;49.046;8.468;2023-08-30T13:49:25;4.47;;;3.67;;
142;SDS011;63667;49.046;8.468;2023-08-30T13:51:52;3.90;;;3.57;;
142;SDS011;63667;49.046;8.468;2023-08-30T13:54:19;5.00;;;3.43;;
142;SDS011;63667;49.046;8.468;2023-08-30T13:56:45;4.10;;;3.90;;
142;SDS011;63667;49.046;8.468;2023-08-30T13:59:12;7.40;;;4.10;;
142;SDS011;63667;49.046;8.468;2023-08-30T14:01:39;4.17;;;3.93;;
142;SDS011;63667;49.046;8.468;2023-08-30T14:04:07;3.57;;;3.43;;
142;SDS011;63667;49.046;8.468;2023-08-30T14:06:33;4.73;;;4.30;;
142;SDS011;63667;49.046;8.468;2023-08-30T14:09:00;4.43;;;4.17;;
142;SDS011;63667;49.046;8.468;2023-08-30T14:11:26;4.90;;;4.00;;
142;SDS011;63667;49.046;8.468;2023-08-30T14:13:53;3.87;;;3.67;;
142;SDS011;63667;49.046;8.468;2023-08-30T14:16:19;7.20;;;4.17;;
142;SDS011;63667;49.046;8.468;2023-08-30T14:18:45;5.87;;;3.93;;
142;SDS011;63667;49.046;8.468;2023-08-30T14:21:12;4.40;;;3.73;;
142;SDS011;63667;49.046;8.468;2023-08-30T14:23:38;4.43;;;4.00;;
142;SDS011;63667;49.046;8.468;2023-08-30T14:26:05;5.73;;;4.07;;
142;SDS011;63667;49.046;8.468;2023-08-30T14:28:36;5.90;;;4.13;;
142;SDS011;63667;49.046;8.468;2023-08-30T14:31:03;5.40;;;3.97;;
142;SDS011;63667;49.046;8.468;2023-08-30T14:33:30;8.33;;;4.37;;
142;SDS011;63667;49.046;8.468;2023-08-30T14:35:56;4.27;;;3.87;;
142;SDS011;63667;49.046;8.468;2023-08-30T14:38:23;7.10;;;3.80;;
142;SDS011;63667;49.046;8.468;2023-08-30T14:40:56;5.40;;;3.60;;
142;SDS011;63667;49.046;8.468;2023-08-30T14:43:22;4.40;;;4.00;;
142;SDS011;63667;49.046;8.468;2023-08-30T14:45:49;4.07;;;3.90;;
142;SDS011;63667;49.046;8.468;2023-08-30T14:48:15;5.07;;;3.90;;
142;SDS011;63667;49.046;8.468;2023-08-30T14:50:42;4.00;;;3.80;;
142;SDS011;63667;49.046;8.468;2023-08-30T14:53:08;4.10;;;3.90;;
142;SDS011;63667;49.046;8.468;2023-08-30T14:55:34;4.20;;;3.73;;
142;SDS011;63667;49.046;8.468;2023-08-30T14:58:01;5.63;;;4.13;;
142;SDS011;63667;49.046;8.468;2023-08-30T15:00:27;6.00;;;4.17;;
142;SDS011;63667;49.046;8.468;2023-08-30T15:02:54;4.50;;;4.23;;
142;SDS011;63667;49.046;8.468;2023-08-30T15:05:20;4.80;;;4.00;;
142;SDS011;63667;49.046;8.468;2023-08-30T15:07:46;5.00;;;4.20;;
142;SDS011;63667;49.046;8.468;2023-08-30T15:10:13;4.20;;;3.67;;
142;SDS011;63667;49.046;8.468;2023-08-30T15:12:41;7.80;;;4.03;;
142;SDS011;63667;49.046;8.468;2023-08-30T15:15:07;4.00;;;3.80;;
142;SDS011;63667;49.046;8.468;2023-08-30T15:17:34;8.43;;;3.77;;
142;SDS011;63667;49.046;8.468;2023-08-30T15:20:00;4.03;;;3.83;;
142;SDS011;63667;49.046;8.468;2023-08-30T15:22:27;6.80;;;4.10;;